sensor_id;sensor_type;location;lat;lon;timestamp;temperature;humidity
5930;DHT22;2990;48.746;9.236;2022-10-22T00:02:09;12.10;99.90
5930;DHT22;2990;48.746;9.236;2022-10-22T00:04:35;12.10;99.90
5930;DHT22;2990;48.746;9.236;2022-10-22T00:07:01;12.10;99.90
5930;DHT22;2990;48.746;9.236;2022-10-22T00:09:26;12.10;99.90
5930;DHT22;2990;48.746;9.236;2022-10-22T00:11:52;12.00;99.90
5930;DHT22;2990;48.746;9.236;2022-10-22T00:14:18;12.00;99.90
5930;DHT22;2990;48.746;9.236;2022-10-22T00:16:43;12.00;99.90
5930;DHT22;2990;48.746;9.236;2022-10-22T00:19:09;12.00;99.90
5930;DHT22;2990;48.746;9.236;2022-10-22T00:21:35;12.00;99.90
5930;DHT22;2990;48.746;9.236;2022-10-22T00:24:01;12.00;99.90
5930;DHT22;2990;48.746;9.236;2022-10-22T00:26:27;12.00;99.90
5930;DHT22;2990;48.746;9.236;2022-10-22T00:28:53;11.90;99.90
5930;DHT22;2990;48.746;9.236;2022-10-22T00:31:19;12.00;99.90
5930;DHT22;2990;48.746;9.236;2022-10-22T00:33:47;12.00;99.90
5930;DHT22;2990;48.746;9.236;2022-10-22T00:36:14;11.90;99.90
5930;DHT22;2990;48.746;9.236;2022-10-22T00:38:40;11.90;99.90
5930;DHT22;2990;48.746;9.236;2022-10-22T00:41:06;11.90;99.90
5930;DHT22;2990;48.746;9.236;2022-10-22T00:43:32;11.90;99.90
5930;DHT22;2990;48.746;9.236;2022-10-22T00:45:57;11.90;99.90
5930;DHT22;2990;48.746;9.236;2022-10-22T00:48:28;11.90;99.90
5930;DHT22;2990;48.746;9.236;2022-10-22T00:50:58;11.90;99.90
5930;DHT22;2990;48.746;9.236;2022-10-22T00:53:32;11.90;99.90
5930;DHT22;2990;48.746;9.236;2022-10-22T00:55:59;11.90;99.90
5930;DHT22;2990;48.746;9.236;2022-10-22T00:58:28;11.90;99.90
5930;DHT22;2990;48.746;9.236;2022-10-22T01:00:54;11.90;99.90
5930;DHT22;2990;48.746;9.236;2022-10-22T01:03:20;11.90;99.90
5930;DHT22;2990;48.746;9.236;2022-10-22T01:08:27;11.90;99.90
5930;DHT22;2990;48.746;9.236;2022-10-22T01:11:21;11.90;99.90
5930;DHT22;2990;48.746;9.236;2022-10-22T01:14:08;11.90;99.90
5930;DHT22;2990;48.746;9.236;2022-10-22T01:28:05;12.00;99.90
5930;DHT22;2990;48.746;9.236;2022-10-22T01:30:34;12.00;99.90
5930;DHT22;2990;48.746;9.236;2022-10-22T01:33:03;11.90;99.90
5930;DHT22;2990;48.746;9.236;2022-10-22T01:35:34;11.90;99.90
5930;DHT22;2990;48.746;9.236;2022-10-22T01:38:04;11.90;99.90
5930;DHT22;2990;48.746;9.236;2022-10-22T01:40:31;11.90;99.90
5930;DHT22;2990;48.746;9.236;2022-10-22T01:43:05;11.90;99.90
5930;DHT22;2990;48.746;9.236;2022-10-22T01:45:50;11.90;99.90
5930;DHT22;2990;48.746;9.236;2022-10-22T02:01:57;11.90;99.90
5930;DHT22;2990;48.746;9.236;2022-10-22T02:04:29;11.90;99.90
5930;DHT22;2990;48.746;9.236;2022-10-22T02:06:59;11.90;99.90
5930;DHT22;2990;48.746;9.236;2022-10-22T02:09:27;11.90;99.90
5930;DHT22;2990;48.746;9.236;2022-10-22T02:11:54;11.90;99.90
5930;DHT22;2990;48.746;9.236;2022-10-22T02:14:22;11.90;99.90
5930;DHT22;2990;48.746;9.236;2022-10-22T02:16:49;11.90;99.90
5930;DHT22;2990;48.746;9.236;2022-10-22T02:19:35;11.90;99.90
5930;DHT22;2990;48.746;9.236;2022-10-22T02:22:03;11.90;99.90
5930;DHT22;2990;48.746;9.236;2022-10-22T02:24:29;11.90;99.90
5930;DHT22;2990;48.746;9.236;2022-10-22T02:29:38;11.90;99.90
5930;DHT22;2990;48.746;9.236;2022-10-22T02:32:08;11.90;99.90
5930;DHT22;2990;48.746;9.236;2022-10-22T02:34:34;12.00;99.90
5930;DHT22;2990;48.746;9.236;2022-10-22T02:37:01;12.00;99.90
5930;DHT22;2990;48.746;9.236;2022-10-22T02:39:28;12.00;99.90
5930;DHT22;2990;48.746;9.236;2022-10-22T02:41:55;12.00;99.90
5930;DHT22;2990;48.746;9.236;2022-10-22T02:44:22;12.00;99.90
5930;DHT22;2990;48.746;9.236;2022-10-22T02:46:48;12.00;99.90
5930;DHT22;2990;48.746;9.236;2022-10-22T02:49:14;12.00;99.90
5930;DHT22;2990;48.746;9.236;2022-10-22T02:51:40;12.00;99.90
5930;DHT22;2990;48.746;9.236;2022-10-22T02:54:05;12.00;99.90
5930;DHT22;2990;48.746;9.236;2022-10-22T02:56:31;12.00;99.90
5930;DHT22;2990;48.746;9.236;2022-10-22T02:58:57;12.00;99.90
5930;DHT22;2990;48.746;9.236;2022-10-22T03:01:22;12.00;99.90
5930;DHT22;2990;48.746;9.236;2022-10-22T03:03:48;12.00;99.90
5930;DHT22;2990;48.746;9.236;2022-10-22T03:06:14;12.00;99.90
5930;DHT22;2990;48.746;9.236;2022-10-22T03:08:40;12.00;99.90
5930;DHT22;2990;48.746;9.236;2022-10-22T03:11:05;12.00;99.90
5930;DHT22;2990;48.746;9.236;2022-10-22T03:13:31;12.00;99.90
5930;DHT22;2990;48.746;9.236;2022-10-22T03:15:56;12.00;99.90
5930;DHT22;2990;48.746;9.236;2022-10-22T03:18:22;12.00;99.90
5930;DHT22;2990;48.746;9.236;2022-10-22T03:20:47;12.00;99.90
5930;DHT22;2990;48.746;9.236;2022-10-22T03:23:15;12.10;99.90
5930;DHT22;2990;48.746;9.236;2022-10-22T03:25:44;12.10;99.90
5930;DHT22;2990;48.746;9.236;2022-10-22T03:28:13;12.00;99.90
5930;DHT22;2990;48.746;9.236;2022-10-22T03:30:39;12.10;99.90
5930;DHT22;2990;48.746;9.236;2022-10-22T03:33:05;12.10;99.90
5930;DHT22;2990;48.746;9.236;2022-10-22T03:35:30;12.10;99.90
5930;DHT22;2990;48.746;9.236;2022-10-22T03:37:59;12.10;99.90
5930;DHT22;2990;48.746;9.236;2022-10-22T03:40:25;12.00;99.90
5930;DHT22;2990;48.746;9.236;2022-10-22T03:42:51;12.00;99.90
5930;DHT22;2990;48.746;9.236;2022-10-22T03:45:17;12.00;99.90
5930;DHT22;2990;48.746;9.236;2022-10-22T03:47:42;12.00;99.90
5930;DHT22;2990;48.746;9.236;2022-10-22T03:50:09;12.00;99.90
5930;DHT22;2990;48.746;9.236;2022-10-22T03:52:36;12.00;99.90
5930;DHT22;2990;48.746;9.236;2022-10-22T03:55:03;12.00;99.90
5930;DHT22;2990;48.746;9.236;2022-10-22T03:57:29;12.00;99.90
5930;DHT22;2990;48.746;9.236;2022-10-22T03:59:54;12.00;99.90
5930;DHT22;2990;48.746;9.236;2022-10-22T04:02:20;12.00;99.90
5930;DHT22;2990;48.746;9.236;2022-10-22T04:04:46;12.00;99.90
5930;DHT22;2990;48.746;9.236;2022-10-22T04:07:11;12.00;99.90
5930;DHT22;2990;48.746;9.236;2022-10-22T04:09:37;12.00;99.90
5930;DHT22;2990;48.746;9.236;2022-10-22T04:12:02;12.00;99.90
5930;DHT22;2990;48.746;9.236;2022-10-22T04:14:30;12.00;99.90
5930;DHT22;2990;48.746;9.236;2022-10-22T04:16:56;12.00;99.90
5930;DHT22;2990;48.746;9.236;2022-10-22T04:19:22;12.00;99.90
5930;DHT22;2990;48.746;9.236;2022-10-22T04:21:48;12.00;99.90
5930;DHT22;2990;48.746;9.236;2022-10-22T04:24:13;12.00;99.90
5930;DHT22;2990;48.746;9.236;2022-10-22T04:26:39;12.00;99.90
5930;DHT22;2990;48.746;9.236;2022-10-22T04:29:06;11.90;99.90
5930;DHT22;2990;48.746;9.236;2022-10-22T04:31:31;11.90;99.90
5930;DHT22;2990;48.746;9.236;2022-10-22T04:33:59;11.90;99.90
5930;DHT22;2990;48.746;9.236;2022-10-22T04:36:26;11.90;99.90
5930;DHT22;2990;48.746;9.236;2022-10-22T04:38:57;11.90;99.90
5930;DHT22;2990;48.746;9.236;2022-10-22T04:41:27;11.90;99.90
5930;DHT22;2990;48.746;9.236;2022-10-22T04:43:54;11.90;99.90
5930;DHT22;2990;48.746;9.236;2022-10-22T04:46:20;11.90;99.90
5930;DHT22;2990;48.746;9.236;2022-10-22T04:48:47;11.90;99.90
5930;DHT22;2990;48.746;9.236;2022-10-22T04:51:16;11.90;99.90
5930;DHT22;2990;48.746;9.236;2022-10-22T04:53:42;11.90;99.90
5930;DHT22;2990;48.746;9.236;2022-10-22T04:56:19;12.00;99.90
5930;DHT22;2990;48.746;9.236;2022-10-22T04:58:46;12.00;99.90
5930;DHT22;2990;48.746;9.236;2022-10-22T05:01:24;12.10;99.90
5930;DHT22;2990;48.746;9.236;2022-10-22T05:03:53;12.10;99.90
5930;DHT22;2990;48.746;9.236;2022-10-22T05:06:19;12.10;99.90
5930;DHT22;2990;48.746;9.236;2022-10-22T05:08:45;12.00;99.90
5930;DHT22;2990;48.746;9.236;2022-10-22T05:11:15;12.10;99.90
5930;DHT22;2990;48.746;9.236;2022-10-22T05:13:41;12.00;99.90
5930;DHT22;2990;48.746;9.236;2022-10-22T05:16:14;12.10;99.90
5930;DHT22;2990;48.746;9.236;2022-10-22T05:18:42;12.10;99.90
5930;DHT22;2990;48.746;9.236;2022-10-22T05:21:10;12.20;99.90
5930;DHT22;2990;48.746;9.236;2022-10-22T05:23:36;12.10;99.90
5930;DHT22;2990;48.746;9.236;2022-10-22T05:26:03;12.10;99.90
5930;DHT22;2990;48.746;9.236;2022-10-22T05:28:29;12.10;99.90
5930;DHT22;2990;48.746;9.236;2022-10-22T05:30:56;12.10;99.90
5930;DHT22;2990;48.746;9.236;2022-10-22T05:33:22;12.10;99.90
5930;DHT22;2990;48.746;9.236;2022-10-22T05:35:49;12.10;99.90
5930;DHT22;2990;48.746;9.236;2022-10-22T05:38:15;12.10;99.90
5930;DHT22;2990;48.746;9.236;2022-10-22T05:40:41;12.10;99.90
5930;DHT22;2990;48.746;9.236;2022-10-22T05:43:07;12.00;99.90
5930;DHT22;2990;48.746;9.236;2022-10-22T05:45:39;12.00;99.90
5930;DHT22;2990;48.746;9.236;2022-10-22T05:48:06;12.00;99.90
5930;DHT22;2990;48.746;9.236;2022-10-22T05:50:34;12.00;99.90
5930;DHT22;2990;48.746;9.236;2022-10-22T05:53:00;12.00;99.90
5930;DHT22;2990;48.746;9.236;2022-10-22T05:55:26;12.00;99.90
5930;DHT22;2990;48.746;9.236;2022-10-22T05:57:51;12.00;99.90
5930;DHT22;2990;48.746;9.236;2022-10-22T06:00:17;12.10;99.90
5930;DHT22;2990;48.746;9.236;2022-10-22T06:02:43;12.10;99.90
5930;DHT22;2990;48.746;9.236;2022-10-22T06:05:08;12.10;99.90
5930;DHT22;2990;48.746;9.236;2022-10-22T06:07:34;12.10;99.90
5930;DHT22;2990;48.746;9.236;2022-10-22T06:10:00;12.10;99.90
5930;DHT22;2990;48.746;9.236;2022-10-22T06:12:26;12.10;99.90
5930;DHT22;2990;48.746;9.236;2022-10-22T06:14:52;12.10;99.90
5930;DHT22;2990;48.746;9.236;2022-10-22T06:17:17;12.10;99.90
5930;DHT22;2990;48.746;9.236;2022-10-22T06:19:44;12.10;99.90
5930;DHT22;2990;48.746;9.236;2022-10-22T06:22:09;12.10;99.90
5930;DHT22;2990;48.746;9.236;2022-10-22T06:24:35;12.10;99.90
5930;DHT22;2990;48.746;9.236;2022-10-22T06:27:01;12.10;99.90
5930;DHT22;2990;48.746;9.236;2022-10-22T06:29:26;12.10;99.90
5930;DHT22;2990;48.746;9.236;2022-10-22T06:31:52;12.10;99.90
5930;DHT22;2990;48.746;9.236;2022-10-22T06:34:17;12.10;99.90
5930;DHT22;2990;48.746;9.236;2022-10-22T06:36:44;12.10;99.90
5930;DHT22;2990;48.746;9.236;2022-10-22T06:39:12;12.20;99.90
5930;DHT22;2990;48.746;9.236;2022-10-22T06:41:37;12.20;99.90
5930;DHT22;2990;48.746;9.236;2022-10-22T06:44:03;12.20;99.90
5930;DHT22;2990;48.746;9.236;2022-10-22T06:46:29;12.20;99.90
5930;DHT22;2990;48.746;9.236;2022-10-22T06:49:01;12.10;99.90
5930;DHT22;2990;48.746;9.236;2022-10-22T06:51:28;12.20;99.90
5930;DHT22;2990;48.746;9.236;2022-10-22T06:53:57;12.20;99.90
5930;DHT22;2990;48.746;9.236;2022-10-22T06:56:25;12.10;99.90
5930;DHT22;2990;48.746;9.236;2022-10-22T06:58:53;12.20;99.90
5930;DHT22;2990;48.746;9.236;2022-10-22T07:01:22;12.20;99.90
5930;DHT22;2990;48.746;9.236;2022-10-22T07:03:50;12.20;99.90
5930;DHT22;2990;48.746;9.236;2022-10-22T07:06:16;12.20;99.90
5930;DHT22;2990;48.746;9.236;2022-10-22T07:08:42;12.20;99.90
5930;DHT22;2990;48.746;9.236;2022-10-22T07:11:16;12.30;99.90
5930;DHT22;2990;48.746;9.236;2022-10-22T07:13:42;12.30;99.90
5930;DHT22;2990;48.746;9.236;2022-10-22T07:16:08;12.30;99.90
5930;DHT22;2990;48.746;9.236;2022-10-22T07:18:35;12.30;99.90
5930;DHT22;2990;48.746;9.236;2022-10-22T07:21:01;12.40;99.90
5930;DHT22;2990;48.746;9.236;2022-10-22T07:23:27;12.40;99.90
5930;DHT22;2990;48.746;9.236;2022-10-22T07:25:53;12.40;99.90
5930;DHT22;2990;48.746;9.236;2022-10-22T07:28:18;12.40;99.90
5930;DHT22;2990;48.746;9.236;2022-10-22T07:30:44;12.50;99.90
5930;DHT22;2990;48.746;9.236;2022-10-22T07:33:10;12.50;99.90
5930;DHT22;2990;48.746;9.236;2022-10-22T07:35:37;12.50;99.90
5930;DHT22;2990;48.746;9.236;2022-10-22T07:38:04;12.60;99.90
5930;DHT22;2990;48.746;9.236;2022-10-22T07:40:29;12.60;99.90
5930;DHT22;2990;48.746;9.236;2022-10-22T07:42:55;12.60;99.90
5930;DHT22;2990;48.746;9.236;2022-10-22T07:45:21;12.60;99.90
5930;DHT22;2990;48.746;9.236;2022-10-22T07:47:47;12.60;99.90
5930;DHT22;2990;48.746;9.236;2022-10-22T07:50:13;12.60;99.90
5930;DHT22;2990;48.746;9.236;2022-10-22T07:52:38;12.70;99.90
5930;DHT22;2990;48.746;9.236;2022-10-22T07:55:04;12.70;99.90
5930;DHT22;2990;48.746;9.236;2022-10-22T07:57:30;12.70;99.90
5930;DHT22;2990;48.746;9.236;2022-10-22T07:59:56;12.80;99.90
5930;DHT22;2990;48.746;9.236;2022-10-22T08:02:25;12.80;99.90
5930;DHT22;2990;48.746;9.236;2022-10-22T08:04:50;12.90;99.90
5930;DHT22;2990;48.746;9.236;2022-10-22T08:07:17;12.90;99.90
5930;DHT22;2990;48.746;9.236;2022-10-22T08:09:43;13.00;99.90
5930;DHT22;2990;48.746;9.236;2022-10-22T08:12:08;13.00;99.90
5930;DHT22;2990;48.746;9.236;2022-10-22T08:14:34;13.00;99.90
5930;DHT22;2990;48.746;9.236;2022-10-22T08:16:59;13.10;99.90
5930;DHT22;2990;48.746;9.236;2022-10-22T08:19:25;13.10;99.90
5930;DHT22;2990;48.746;9.236;2022-10-22T08:21:53;13.20;99.90
5930;DHT22;2990;48.746;9.236;2022-10-22T08:24:18;13.20;99.90
5930;DHT22;2990;48.746;9.236;2022-10-22T08:26:44;13.30;99.90
5930;DHT22;2990;48.746;9.236;2022-10-22T08:29:09;13.30;99.90
5930;DHT22;2990;48.746;9.236;2022-10-22T08:31:35;13.40;99.90
5930;DHT22;2990;48.746;9.236;2022-10-22T08:34:00;13.40;99.90
5930;DHT22;2990;48.746;9.236;2022-10-22T08:36:26;13.50;99.90
5930;DHT22;2990;48.746;9.236;2022-10-22T08:38:52;13.50;99.90
5930;DHT22;2990;48.746;9.236;2022-10-22T08:41:19;13.50;99.90
5930;DHT22;2990;48.746;9.236;2022-10-22T08:49:28;13.40;99.90
5930;DHT22;2990;48.746;9.236;2022-10-22T08:51:56;13.70;99.90
5930;DHT22;2990;48.746;9.236;2022-10-22T08:54:27;14.10;99.90
5930;DHT22;2990;48.746;9.236;2022-10-22T08:59:46;14.80;1.00
5930;DHT22;2990;48.746;9.236;2022-10-22T09:02:42;15.10;1.00
5930;DHT22;2990;48.746;9.236;2022-10-22T09:08:24;15.60;24.40
5930;DHT22;2990;48.746;9.236;2022-10-22T09:10:55;15.80;1.00
5930;DHT22;2990;48.746;9.236;2022-10-22T09:13:22;15.90;42.60
5930;DHT22;2990;48.746;9.236;2022-10-22T09:15:53;16.20;1.00
5930;DHT22;2990;48.746;9.236;2022-10-22T09:18:30;16.40;2.30
5930;DHT22;2990;48.746;9.236;2022-10-22T09:21:09;16.70;99.90
5930;DHT22;2990;48.746;9.236;2022-10-22T09:23:53;16.90;99.90
5930;DHT22;2990;48.746;9.236;2022-10-22T09:26:20;17.00;99.90
5930;DHT22;2990;48.746;9.236;2022-10-22T09:28:49;17.10;1.00
5930;DHT22;2990;48.746;9.236;2022-10-22T09:31:15;17.20;1.00
5930;DHT22;2990;48.746;9.236;2022-10-22T09:33:42;17.30;99.90
5930;DHT22;2990;48.746;9.236;2022-10-22T09:36:15;17.40;41.40
5930;DHT22;2990;48.746;9.236;2022-10-22T09:38:46;17.50;1.00
5930;DHT22;2990;48.746;9.236;2022-10-22T09:41:12;17.50;99.90
5930;DHT22;2990;48.746;9.236;2022-10-22T09:43:38;17.50;1.00
5930;DHT22;2990;48.746;9.236;2022-10-22T09:46:06;17.70;99.90
5930;DHT22;2990;48.746;9.236;2022-10-22T09:48:34;17.60;99.90
5930;DHT22;2990;48.746;9.236;2022-10-22T09:51:18;17.70;1.00
5930;DHT22;2990;48.746;9.236;2022-10-22T09:53:46;17.90;1.00
5930;DHT22;2990;48.746;9.236;2022-10-22T09:56:34;18.00;1.00
5930;DHT22;2990;48.746;9.236;2022-10-22T09:59:00;18.20;1.00
5930;DHT22;2990;48.746;9.236;2022-10-22T10:01:27;18.40;99.90
5930;DHT22;2990;48.746;9.236;2022-10-22T10:03:53;18.40;1.00
5930;DHT22;2990;48.746;9.236;2022-10-22T10:06:20;18.60;99.90
5930;DHT22;2990;48.746;9.236;2022-10-22T10:08:47;18.60;99.90
5930;DHT22;2990;48.746;9.236;2022-10-22T10:11:28;18.70;1.00
5930;DHT22;2990;48.746;9.236;2022-10-22T10:14:13;18.70;1.00
5930;DHT22;2990;48.746;9.236;2022-10-22T10:16:59;18.80;99.90
5930;DHT22;2990;48.746;9.236;2022-10-22T10:30:31;19.00;99.90
5930;DHT22;2990;48.746;9.236;2022-10-22T10:33:12;19.10;1.00
5930;DHT22;2990;48.746;9.236;2022-10-22T10:39:24;19.30;1.00
5930;DHT22;2990;48.746;9.236;2022-10-22T10:49:34;19.80;1.00
5930;DHT22;2990;48.746;9.236;2022-10-22T10:52:17;19.90;1.00
5930;DHT22;2990;48.746;9.236;2022-10-22T10:54:53;20.00;1.00
5930;DHT22;2990;48.746;9.236;2022-10-22T10:57:36;20.30;99.90
5930;DHT22;2990;48.746;9.236;2022-10-22T11:00:11;20.10;99.90
5930;DHT22;2990;48.746;9.236;2022-10-22T11:05:41;20.10;99.90
5930;DHT22;2990;48.746;9.236;2022-10-22T11:13:51;19.70;99.90
5930;DHT22;2990;48.746;9.236;2022-10-22T11:16:27;19.80;99.90
5930;DHT22;2990;48.746;9.236;2022-10-22T11:21:46;20.10;99.90
5930;DHT22;2990;48.746;9.236;2022-10-22T11:27:26;20.50;99.90
5930;DHT22;2990;48.746;9.236;2022-10-22T11:30:04;20.50;99.90
5930;DHT22;2990;48.746;9.236;2022-10-22T11:32:30;20.30;99.90
5930;DHT22;2990;48.746;9.236;2022-10-22T11:35:01;20.50;99.90
5930;DHT22;2990;48.746;9.236;2022-10-22T11:37:30;20.50;99.90
5930;DHT22;2990;48.746;9.236;2022-10-22T11:40:06;20.50;84.60
5930;DHT22;2990;48.746;9.236;2022-10-22T11:42:38;20.50;99.90
5930;DHT22;2990;48.746;9.236;2022-10-22T11:45:25;20.60;99.90
5930;DHT22;2990;48.746;9.236;2022-10-22T11:50:45;20.70;74.90
5930;DHT22;2990;48.746;9.236;2022-10-22T12:06:22;20.80;1.00
5930;DHT22;2990;48.746;9.236;2022-10-22T12:11:35;20.90;1.00
5930;DHT22;2990;48.746;9.236;2022-10-22T12:14:24;21.00;4.50
5930;DHT22;2990;48.746;9.236;2022-10-22T12:16:58;20.90;1.00
5930;DHT22;2990;48.746;9.236;2022-10-22T12:19:30;20.90;1.00
5930;DHT22;2990;48.746;9.236;2022-10-22T12:24:37;21.20;1.00
5930;DHT22;2990;48.746;9.236;2022-10-22T12:27:22;21.30;1.00
5930;DHT22;2990;48.746;9.236;2022-10-22T12:29:56;21.40;1.00
5930;DHT22;2990;48.746;9.236;2022-10-22T12:32:22;21.50;1.00
5930;DHT22;2990;48.746;9.236;2022-10-22T12:34:51;21.60;1.00
5930;DHT22;2990;48.746;9.236;2022-10-22T12:37:17;21.70;1.00
5930;DHT22;2990;48.746;9.236;2022-10-22T12:39:44;21.80;1.00
5930;DHT22;2990;48.746;9.236;2022-10-22T12:42:15;21.60;44.10
5930;DHT22;2990;48.746;9.236;2022-10-22T12:44:45;21.40;74.10
5930;DHT22;2990;48.746;9.236;2022-10-22T12:47:17;21.40;1.00
5930;DHT22;2990;48.746;9.236;2022-10-22T12:49:48;21.00;36.20
5930;DHT22;2990;48.746;9.236;2022-10-22T12:52:17;20.70;60.80
5930;DHT22;2990;48.746;9.236;2022-10-22T12:54:46;20.50;1.00
5930;DHT22;2990;48.746;9.236;2022-10-22T12:57:14;20.50;1.00
5930;DHT22;2990;48.746;9.236;2022-10-22T12:59:42;20.60;1.00
5930;DHT22;2990;48.746;9.236;2022-10-22T13:02:20;20.70;1.00
5930;DHT22;2990;48.746;9.236;2022-10-22T13:05:09;20.80;1.00
5930;DHT22;2990;48.746;9.236;2022-10-22T13:07:41;20.90;1.00
5930;DHT22;2990;48.746;9.236;2022-10-22T13:10:25;21.00;1.00
5930;DHT22;2990;48.746;9.236;2022-10-22T13:12:55;21.00;1.00
5930;DHT22;2990;48.746;9.236;2022-10-22T13:18:19;20.80;1.00
5930;DHT22;2990;48.746;9.236;2022-10-22T13:21:00;20.80;1.00
5930;DHT22;2990;48.746;9.236;2022-10-22T13:23:32;20.80;1.00
5930;DHT22;2990;48.746;9.236;2022-10-22T13:26:18;20.80;1.00
5930;DHT22;2990;48.746;9.236;2022-10-22T13:28:55;20.80;1.00
5930;DHT22;2990;48.746;9.236;2022-10-22T13:31:31;20.50;1.00
5930;DHT22;2990;48.746;9.236;2022-10-22T13:34:02;20.60;1.00
5930;DHT22;2990;48.746;9.236;2022-10-22T13:36:31;20.60;1.00
5930;DHT22;2990;48.746;9.236;2022-10-22T13:38:57;20.70;1.00
5930;DHT22;2990;48.746;9.236;2022-10-22T13:41:28;20.80;1.00
5930;DHT22;2990;48.746;9.236;2022-10-22T13:43:55;20.80;1.00
5930;DHT22;2990;48.746;9.236;2022-10-22T13:46:22;20.80;1.00
5930;DHT22;2990;48.746;9.236;2022-10-22T13:48:50;20.80;1.00
5930;DHT22;2990;48.746;9.236;2022-10-22T13:51:31;20.90;1.00
5930;DHT22;2990;48.746;9.236;2022-10-22T13:53:59;20.90;1.00
5930;DHT22;2990;48.746;9.236;2022-10-22T13:56:25;20.90;33.50
5930;DHT22;2990;48.746;9.236;2022-10-22T13:58:50;20.60;1.00
5930;DHT22;2990;48.746;9.236;2022-10-22T14:01:24;20.80;1.00
5930;DHT22;2990;48.746;9.236;2022-10-22T14:03:52;20.80;1.00
5930;DHT22;2990;48.746;9.236;2022-10-22T14:06:20;20.80;1.00
5930;DHT22;2990;48.746;9.236;2022-10-22T14:08:48;20.70;1.00
5930;DHT22;2990;48.746;9.236;2022-10-22T14:11:16;20.60;1.00
5930;DHT22;2990;48.746;9.236;2022-10-22T14:13:42;20.60;1.00
5930;DHT22;2990;48.746;9.236;2022-10-22T14:16:15;20.60;1.00
5930;DHT22;2990;48.746;9.236;2022-10-22T14:18:42;20.60;1.00
5930;DHT22;2990;48.746;9.236;2022-10-22T14:21:09;20.50;1.00
5930;DHT22;2990;48.746;9.236;2022-10-22T14:23:35;20.50;1.00
5930;DHT22;2990;48.746;9.236;2022-10-22T14:26:02;20.40;1.00
5930;DHT22;2990;48.746;9.236;2022-10-22T14:28:27;20.30;1.00
5930;DHT22;2990;48.746;9.236;2022-10-22T14:30:54;20.30;1.00
5930;DHT22;2990;48.746;9.236;2022-10-22T14:33:28;20.40;1.00
5930;DHT22;2990;48.746;9.236;2022-10-22T14:35:54;20.20;1.00
5930;DHT22;2990;48.746;9.236;2022-10-22T14:38:20;20.10;1.00
5930;DHT22;2990;48.746;9.236;2022-10-22T14:40:46;20.10;1.00
5930;DHT22;2990;48.746;9.236;2022-10-22T14:43:19;20.10;1.00
5930;DHT22;2990;48.746;9.236;2022-10-22T14:45:45;20.10;1.00
5930;DHT22;2990;48.746;9.236;2022-10-22T14:48:10;19.90;1.00
5930;DHT22;2990;48.746;9.236;2022-10-22T14:50:36;20.00;1.30
5930;DHT22;2990;48.746;9.236;2022-10-22T14:53:02;19.90;10.90
5930;DHT22;2990;48.746;9.236;2022-10-22T14:55:28;19.90;46.20
5930;DHT22;2990;48.746;9.236;2022-10-22T14:57:54;19.90;1.00
5930;DHT22;2990;48.746;9.236;2022-10-22T15:00:20;19.70;3.80
5930;DHT22;2990;48.746;9.236;2022-10-22T15:02:46;19.80;26.30
5930;DHT22;2990;48.746;9.236;2022-10-22T15:05:12;19.60;1.00
5930;DHT22;2990;48.746;9.236;2022-10-22T15:07:38;19.50;3.20
5930;DHT22;2990;48.746;9.236;2022-10-22T15:10:05;19.50;4.60
5930;DHT22;2990;48.746;9.236;2022-10-22T15:12:31;19.30;15.10
5930;DHT22;2990;48.746;9.236;2022-10-22T15:14:57;19.30;1.00
5930;DHT22;2990;48.746;9.236;2022-10-22T15:17:22;19.20;5.40
5930;DHT22;2990;48.746;9.236;2022-10-22T15:19:48;19.20;9.30
5930;DHT22;2990;48.746;9.236;2022-10-22T15:22:14;18.80;16.40
5930;DHT22;2990;48.746;9.236;2022-10-22T15:24:40;18.90;19.50
5930;DHT22;2990;48.746;9.236;2022-10-22T15:27:12;18.80;24.60
5930;DHT22;2990;48.746;9.236;2022-10-22T15:29:52;18.70;28.10
5930;DHT22;2990;48.746;9.236;2022-10-22T15:32:18;18.70;34.10
5930;DHT22;2990;48.746;9.236;2022-10-22T15:34:43;18.50;36.70
5930;DHT22;2990;48.746;9.236;2022-10-22T15:37:11;18.60;58.20
5930;DHT22;2990;48.746;9.236;2022-10-22T15:39:41;18.50;87.90
5930;DHT22;2990;48.746;9.236;2022-10-22T15:42:08;18.40;91.70
5930;DHT22;2990;48.746;9.236;2022-10-22T15:44:34;18.20;97.20
5930;DHT22;2990;48.746;9.236;2022-10-22T15:47:02;18.20;99.90
5930;DHT22;2990;48.746;9.236;2022-10-22T15:49:28;18.00;99.90
5930;DHT22;2990;48.746;9.236;2022-10-22T15:51:54;17.90;99.90
5930;DHT22;2990;48.746;9.236;2022-10-22T15:54:26;17.80;99.90
5930;DHT22;2990;48.746;9.236;2022-10-22T15:56:53;17.70;99.90
5930;DHT22;2990;48.746;9.236;2022-10-22T15:59:19;17.60;99.90
5930;DHT22;2990;48.746;9.236;2022-10-22T16:01:44;17.50;99.90
5930;DHT22;2990;48.746;9.236;2022-10-22T16:04:10;17.40;99.90
5930;DHT22;2990;48.746;9.236;2022-10-22T16:06:39;17.30;99.90
5930;DHT22;2990;48.746;9.236;2022-10-22T16:09:07;17.30;99.90
5930;DHT22;2990;48.746;9.236;2022-10-22T16:11:34;17.20;99.90
5930;DHT22;2990;48.746;9.236;2022-10-22T16:14:00;17.10;99.90
5930;DHT22;2990;48.746;9.236;2022-10-22T16:16:28;17.00;99.90
5930;DHT22;2990;48.746;9.236;2022-10-22T16:18:55;17.00;1.00
5930;DHT22;2990;48.746;9.236;2022-10-22T16:21:22;16.90;1.00
5930;DHT22;2990;48.746;9.236;2022-10-22T16:23:48;16.80;1.00
5930;DHT22;2990;48.746;9.236;2022-10-22T16:26:14;16.70;1.00
5930;DHT22;2990;48.746;9.236;2022-10-22T16:28:41;16.70;1.00
5930;DHT22;2990;48.746;9.236;2022-10-22T16:31:09;16.60;1.00
5930;DHT22;2990;48.746;9.236;2022-10-22T16:33:37;16.60;1.00
5930;DHT22;2990;48.746;9.236;2022-10-22T16:36:04;16.50;1.00
5930;DHT22;2990;48.746;9.236;2022-10-22T16:38:30;16.40;1.00
5930;DHT22;2990;48.746;9.236;2022-10-22T16:41:06;16.40;1.00
5930;DHT22;2990;48.746;9.236;2022-10-22T16:43:32;16.30;1.00
5930;DHT22;2990;48.746;9.236;2022-10-22T16:45:57;16.30;1.00
5930;DHT22;2990;48.746;9.236;2022-10-22T16:48:23;16.20;1.00
5930;DHT22;2990;48.746;9.236;2022-10-22T16:50:48;16.30;1.00
5930;DHT22;2990;48.746;9.236;2022-10-22T16:53:14;16.20;1.00
5930;DHT22;2990;48.746;9.236;2022-10-22T16:55:39;16.20;1.00
5930;DHT22;2990;48.746;9.236;2022-10-22T16:58:05;16.20;1.00
5930;DHT22;2990;48.746;9.236;2022-10-22T17:00:31;16.10;1.00
5930;DHT22;2990;48.746;9.236;2022-10-22T17:02:57;16.10;1.00
5930;DHT22;2990;48.746;9.236;2022-10-22T17:05:23;16.10;10.10
5930;DHT22;2990;48.746;9.236;2022-10-22T17:07:49;16.00;1.00
5930;DHT22;2990;48.746;9.236;2022-10-22T17:10:16;16.00;1.00
5930;DHT22;2990;48.746;9.236;2022-10-22T17:12:47;16.00;99.90
5930;DHT22;2990;48.746;9.236;2022-10-22T17:15:13;16.00;82.40
5930;DHT22;2990;48.746;9.236;2022-10-22T17:17:38;15.90;20.20
5930;DHT22;2990;48.746;9.236;2022-10-22T17:20:05;15.90;99.90
5930;DHT22;2990;48.746;9.236;2022-10-22T17:22:31;15.90;99.90
5930;DHT22;2990;48.746;9.236;2022-10-22T17:27:33;15.80;99.90
5930;DHT22;2990;48.746;9.236;2022-10-22T17:29:59;15.70;99.90
5930;DHT22;2990;48.746;9.236;2022-10-22T17:32:24;15.60;99.90
5930;DHT22;2990;48.746;9.236;2022-10-22T17:34:50;15.60;99.90
5930;DHT22;2990;48.746;9.236;2022-10-22T17:37:15;15.60;99.90
5930;DHT22;2990;48.746;9.236;2022-10-22T17:39:41;15.60;99.90
5930;DHT22;2990;48.746;9.236;2022-10-22T17:42:06;15.60;99.30
5930;DHT22;2990;48.746;9.236;2022-10-22T17:44:32;15.60;53.00
5930;DHT22;2990;48.746;9.236;2022-10-22T17:46:57;15.60;87.70
5930;DHT22;2990;48.746;9.236;2022-10-22T17:49:25;15.50;14.60
5930;DHT22;2990;48.746;9.236;2022-10-22T17:51:51;15.50;1.00
5930;DHT22;2990;48.746;9.236;2022-10-22T17:54:16;15.50;1.00
5930;DHT22;2990;48.746;9.236;2022-10-22T17:56:42;15.40;1.00
5930;DHT22;2990;48.746;9.236;2022-10-22T17:59:11;15.30;48.00
5930;DHT22;2990;48.746;9.236;2022-10-22T18:01:37;15.20;99.90